createdAt,value
2023-01-07T00:00:01.905Z,10.68
2023-01-07T00:02:15.095Z,10.67
2023-01-07T00:04:21.463Z,10.67
2023-01-07T00:06:26.580Z,10.67
2023-01-07T00:08:30.690Z,10.67
2023-01-07T00:10:35.123Z,10.66
2023-01-07T00:12:38.133Z,10.64
2023-01-07T00:14:41.165Z,10.60
2023-01-07T00:16:44.541Z,10.59
2023-01-07T00:18:48.075Z,10.58
2023-01-07T00:20:52.414Z,10.58
2023-01-07T00:22:55.532Z,10.57
2023-01-07T00:24:58.563Z,10.60
2023-01-07T00:27:01.680Z,10.60
2023-01-07T00:29:06.089Z,10.59
2023-01-07T00:31:11.449Z,10.57
2023-01-07T00:33:15.633Z,10.59
2023-01-07T00:35:23.260Z,10.61
2023-01-07T00:37:45.333Z,10.60
2023-01-07T00:39:48.300Z,10.62
2023-01-07T00:42:08.708Z,10.58
2023-01-07T00:44:12.283Z,10.57
2023-01-07T00:46:16.119Z,10.55
2023-01-07T00:48:19.224Z,10.55
2023-01-07T00:50:22.410Z,10.54
2023-01-07T00:52:27.066Z,10.53
2023-01-07T00:54:30.197Z,10.52
2023-01-07T00:56:33.590Z,10.52
2023-01-07T00:58:36.696Z,10.50
2023-01-07T01:00:40.167Z,10.50
2023-01-07T01:02:43.206Z,10.51
2023-01-07T01:04:46.254Z,10.50
2023-01-07T01:06:49.299Z,10.52
2023-01-07T01:08:53.694Z,10.53
2023-01-07T01:10:56.729Z,10.52
2023-01-07T01:13:00.203Z,10.52
2023-01-07T01:15:03.693Z,10.52
2023-01-07T01:17:06.767Z,10.50
2023-01-07T01:19:09.767Z,10.49
2023-01-07T01:21:14.928Z,10.49
2023-01-07T01:23:18.224Z,10.47
2023-01-07T01:25:22.621Z,10.47
2023-01-07T01:27:25.785Z,10.46
2023-01-07T01:29:29.020Z,10.46
2023-01-07T01:31:32.400Z,10.44
2023-01-07T01:33:35.860Z,10.40
2023-01-07T01:35:41.470Z,10.40
2023-01-07T01:37:45.137Z,10.43
2023-01-07T01:39:49.121Z,10.46
2023-01-07T01:41:53.516Z,10.46
2023-01-07T01:43:56.715Z,10.49
2023-01-07T01:46:02.046Z,10.45
2023-01-07T01:48:07.770Z,10.42
2023-01-07T01:50:16.546Z,10.37
2023-01-07T01:52:22.491Z,10.31
2023-01-07T01:54:26.911Z,10.29
2023-01-07T01:56:35.319Z,10.30
2023-01-07T01:58:42.581Z,10.31
2023-01-07T02:00:46.462Z,10.32
2023-01-07T02:03:27.134Z,10.33
2023-01-07T02:05:33.954Z,10.34
2023-01-07T02:07:37.064Z,10.35
2023-01-07T02:09:42.457Z,10.35
2023-01-07T02:11:57.773Z,10.36
2023-01-07T02:14:12.890Z,10.36
2023-01-07T02:16:21.366Z,10.37
2023-01-07T02:18:43.637Z,10.40
2023-01-07T02:21:09.445Z,10.39
2023-01-07T02:23:36.889Z,10.37
2023-01-07T02:26:17.514Z,10.34
2023-01-07T02:28:52.671Z,10.32
2023-01-07T02:31:22.289Z,10.33
2023-01-07T02:33:35.351Z,10.33
2023-01-07T02:35:49.484Z,10.35
2023-01-07T02:37:57.412Z,10.35
2023-01-07T02:40:05.655Z,10.35
2023-01-07T02:42:14.807Z,10.37
2023-01-07T02:44:23.231Z,10.35
2023-01-07T02:46:30.883Z,10.34
2023-01-07T02:48:35.816Z,10.32
2023-01-07T02:50:38.956Z,10.32
2023-01-07T02:52:42.021Z,10.32
2023-01-07T02:54:45.455Z,10.31
2023-01-07T02:57:02.274Z,10.32
2023-01-07T02:59:18.479Z,10.32
2023-01-07T03:01:36.196Z,10.31
2023-01-07T03:03:54.750Z,10.31
2023-01-07T03:06:07.019Z,10.32
2023-01-07T03:08:44.168Z,10.31
2023-01-07T03:10:51.934Z,10.31
2023-01-07T03:13:01.007Z,10.31
2023-01-07T03:15:09.383Z,10.30
2023-01-07T03:17:18.682Z,10.32
2023-01-07T03:19:25.873Z,10.30
2023-01-07T03:21:29.546Z,10.30
2023-01-07T03:23:33.471Z,10.30
2023-01-07T03:25:40.565Z,10.31
2023-01-07T03:27:47.592Z,10.29
2023-01-07T03:29:51.245Z,10.29
2023-01-07T03:31:58.224Z,10.30
2023-01-07T03:34:05.338Z,10.30
2023-01-07T03:36:12.125Z,10.30
2023-01-07T03:38:16.557Z,10.30
2023-01-07T03:40:20.168Z,10.30
2023-01-07T03:42:42.319Z,10.30
2023-01-07T03:44:50.118Z,10.30
2023-01-07T03:46:54.925Z,10.30
2023-01-07T03:48:57.937Z,10.30
2023-01-07T03:51:01.032Z,10.28
2023-01-07T03:53:05.471Z,10.30
2023-01-07T03:55:11.745Z,10.29
2023-01-07T03:57:14.781Z,10.29
2023-01-07T03:59:17.768Z,10.27
2023-01-07T04:01:20.999Z,10.24
2023-01-07T04:03:24.396Z,10.24
2023-01-07T04:05:27.411Z,10.22
2023-01-07T04:07:30.594Z,10.23
2023-01-07T04:09:35.122Z,10.22
2023-01-07T04:11:38.160Z,10.21
2023-01-07T04:13:41.155Z,10.20
2023-01-07T04:15:44.673Z,10.18
2023-01-07T04:17:48.023Z,10.18
2023-01-07T04:19:51.874Z,10.19
2023-01-07T04:21:55.059Z,10.19
2023-01-07T04:23:58.183Z,10.21
2023-01-07T04:26:03.625Z,10.21
2023-01-07T04:28:06.868Z,10.20
2023-01-07T04:30:10.963Z,10.20
2023-01-07T04:32:14.734Z,10.20
2023-01-07T04:34:18.106Z,10.19
2023-01-07T04:36:21.227Z,10.21
2023-01-07T04:38:24.716Z,10.22
2023-01-07T04:40:30.333Z,10.22
2023-01-07T04:42:35.706Z,10.23
2023-01-07T04:44:39.372Z,10.26
2023-01-07T04:46:42.469Z,10.27
2023-01-07T04:48:45.710Z,10.25
2023-01-07T04:50:48.870Z,10.27
2023-01-07T04:52:52.729Z,10.27
2023-01-07T04:54:55.789Z,10.28
2023-01-07T04:56:58.874Z,10.29
2023-01-07T04:59:03.746Z,10.31
2023-01-07T05:01:07.223Z,10.32
2023-01-07T05:03:11.413Z,10.32
2023-01-07T05:05:14.585Z,10.32
2023-01-07T05:07:17.595Z,10.34
2023-01-07T05:09:21.396Z,10.33
2023-01-07T05:11:27.500Z,10.32
2023-01-07T05:13:35.316Z,10.32
2023-01-07T05:15:41.515Z,10.32
2023-01-07T05:17:44.954Z,10.31
2023-01-07T05:19:47.990Z,10.30
2023-01-07T05:21:52.405Z,10.31
2023-01-07T05:23:55.666Z,10.32
2023-01-07T05:25:59.127Z,10.30
2023-01-07T05:28:02.617Z,10.32
2023-01-07T05:30:08.812Z,10.32
2023-01-07T05:32:13.468Z,10.31
2023-01-07T05:34:17.824Z,10.31
2023-01-07T05:36:21.808Z,10.32
2023-01-07T05:38:25.268Z,10.33
2023-01-07T05:40:28.348Z,10.30
2023-01-07T05:42:32.046Z,10.32
2023-01-07T05:44:35.932Z,10.32
2023-01-07T05:46:38.950Z,10.34
2023-01-07T05:48:43.413Z,10.31
2023-01-07T05:50:46.469Z,10.30
2023-01-07T05:52:49.454Z,10.26
2023-01-07T05:54:52.430Z,10.28
2023-01-07T05:56:55.374Z,10.30
2023-01-07T05:58:58.382Z,10.30
2023-01-07T06:01:01.555Z,10.30
2023-01-07T06:03:05.222Z,10.29
2023-01-07T06:05:10.602Z,10.28
2023-01-07T06:07:13.774Z,10.30
2023-01-07T06:09:16.803Z,10.28
2023-01-07T06:11:19.895Z,10.27
2023-01-07T06:13:23.131Z,10.26
2023-01-07T06:15:26.118Z,10.23
2023-01-07T06:17:29.590Z,10.25
2023-01-07T06:19:32.642Z,10.25
2023-01-07T06:21:37.134Z,10.23
2023-01-07T06:23:40.480Z,10.24
2023-01-07T06:25:43.586Z,10.26
2023-01-07T06:27:46.708Z,10.26
2023-01-07T06:29:49.843Z,10.25
2023-01-07T06:31:52.875Z,10.25
2023-01-07T06:33:55.901Z,10.25
2023-01-07T06:35:58.930Z,10.24
2023-01-07T06:38:03.294Z,10.26
2023-01-07T06:40:07.917Z,10.23
2023-01-07T06:42:10.897Z,10.24
2023-01-07T06:44:14.008Z,10.23
2023-01-07T06:46:17.087Z,10.24
2023-01-07T06:48:20.166Z,10.25
2023-01-07T06:50:23.146Z,10.24
2023-01-07T06:52:28.203Z,10.23
2023-01-07T06:54:32.737Z,10.22
2023-01-07T06:56:35.722Z,10.23
2023-01-07T06:58:38.830Z,10.23
2023-01-07T07:00:41.846Z,10.25
2023-01-07T07:02:44.849Z,10.26
2023-01-07T07:04:47.848Z,10.31
2023-01-07T07:06:50.847Z,10.33
2023-01-07T07:08:53.849Z,10.36
2023-01-07T07:10:58.270Z,10.38
2023-01-07T07:13:01.296Z,10.40
2023-01-07T07:15:05.255Z,10.42
2023-01-07T07:17:08.463Z,10.45
2023-01-07T07:19:13.291Z,10.48
2023-01-07T07:21:16.354Z,10.47
2023-01-07T07:23:19.424Z,10.51
2023-01-07T07:25:22.495Z,10.52
2023-01-07T07:27:27.021Z,10.51
2023-01-07T07:29:29.989Z,10.51
2023-01-07T07:31:33.133Z,10.56
2023-01-07T07:33:36.353Z,10.57
2023-01-07T07:35:39.400Z,10.60
2023-01-07T07:37:42.588Z,10.61
2023-01-07T07:39:45.716Z,10.64
2023-01-07T07:41:51.640Z,10.67
2023-01-07T07:43:56.008Z,10.69
2023-01-07T07:45:59.202Z,10.72
2023-01-07T07:48:02.207Z,10.73
2023-01-07T07:50:05.892Z,10.73
2023-01-07T07:52:08.975Z,10.73
2023-01-07T07:54:12.076Z,10.72
2023-01-07T07:56:15.126Z,10.72
2023-01-07T07:58:18.151Z,10.71
2023-01-07T08:00:22.978Z,10.73
2023-01-07T08:02:26.155Z,10.75
2023-01-07T08:04:33.960Z,10.78
2023-01-07T08:06:37.222Z,10.81
2023-01-07T08:08:40.314Z,10.84
2023-01-07T08:10:43.550Z,10.84
2023-01-07T08:12:46.783Z,10.86
2023-01-07T08:14:49.847Z,10.86
2023-01-07T08:16:54.327Z,10.86
2023-01-07T08:18:57.488Z,10.86
2023-01-07T08:21:00.565Z,10.85
2023-01-07T08:23:04.957Z,10.90
2023-01-07T08:25:08.774Z,10.94
2023-01-07T08:27:11.806Z,10.96
2023-01-07T08:29:14.885Z,10.99
2023-01-07T08:31:18.202Z,11.02
2023-01-07T08:33:22.727Z,11.05
2023-01-07T08:35:25.919Z,11.08
2023-01-07T08:37:30.500Z,11.10
2023-01-07T08:39:33.530Z,11.11
2023-01-07T08:41:36.566Z,11.14
2023-01-07T08:43:39.730Z,11.15
2023-01-07T08:45:44.059Z,11.17
2023-01-07T08:47:47.728Z,11.18
2023-01-07T08:49:52.167Z,11.21
2023-01-07T08:51:55.207Z,11.21
2023-01-07T08:53:58.262Z,11.19
2023-01-07T08:56:01.345Z,11.16
2023-01-07T08:58:04.531Z,11.07
2023-01-07T09:00:09.055Z,11.07
2023-01-07T09:02:14.882Z,11.05
2023-01-07T09:04:17.977Z,11.07
2023-01-07T09:06:22.836Z,11.05
2023-01-07T09:08:26.021Z,11.05
2023-01-07T09:10:29.045Z,11.08
2023-01-07T09:12:32.154Z,11.10
2023-01-07T09:14:35.325Z,11.11
2023-01-07T09:16:38.349Z,11.14
2023-01-07T09:18:41.483Z,11.17
2023-01-07T09:20:44.879Z,11.20
2023-01-07T09:22:49.372Z,11.20
2023-01-07T09:24:52.407Z,11.25
2023-01-07T09:26:55.489Z,11.27
2023-01-07T09:28:58.691Z,11.30
2023-01-07T09:31:03.062Z,11.33
2023-01-07T09:33:06.210Z,11.34
2023-01-07T09:35:09.986Z,11.39
2023-01-07T09:37:13.071Z,11.35
2023-01-07T09:39:17.590Z,11.38
2023-01-07T09:41:27.277Z,11.43
2023-01-07T09:43:59.339Z,11.46
2023-01-07T09:46:01.236Z,11.50
2023-01-07T09:48:07.778Z,11.54
2023-01-07T09:50:19.828Z,11.60
2023-01-07T09:52:25.178Z,11.64
2023-01-07T09:54:31.271Z,11.66
2023-01-07T09:56:35.602Z,11.69
2023-01-07T09:58:39.271Z,11.69
2023-01-07T10:00:52.999Z,11.73
2023-01-07T10:03:15.323Z,11.80
2023-01-07T10:05:30.323Z,11.87
2023-01-07T10:07:37.932Z,11.91
2023-01-07T10:09:51.080Z,11.91
2023-01-07T10:12:00.406Z,11.97
2023-01-07T10:14:36.628Z,11.97
2023-01-07T10:16:43.468Z,11.93
2023-01-07T10:18:55.656Z,11.90
2023-01-07T10:21:04.889Z,11.90
2023-01-07T10:23:11.573Z,11.93
2023-01-07T10:25:19.612Z,11.95
2023-01-07T10:27:30.627Z,12.00
2023-01-07T10:29:37.151Z,12.04
2023-01-07T10:31:40.771Z,12.07
2023-01-07T10:33:45.303Z,12.07
2023-01-07T10:35:50.143Z,12.13
2023-01-07T10:37:53.697Z,12.20
2023-01-07T10:40:03.552Z,12.23
2023-01-07T10:42:13.688Z,12.30
2023-01-07T10:44:44.558Z,12.33
2023-01-07T10:46:55.905Z,12.54
2023-01-07T10:49:29.911Z,12.56
2023-01-07T10:52:00.121Z,12.50
2023-01-07T10:54:08.706Z,12.47
2023-01-07T10:56:23.175Z,12.36
2023-01-07T10:58:29.067Z,12.24
2023-01-07T11:00:32.120Z,12.20
2023-01-07T11:02:35.283Z,12.22
2023-01-07T11:04:38.378Z,12.23
2023-01-07T11:06:45.465Z,12.18
2023-01-07T11:08:50.093Z,12.16
2023-01-07T11:10:53.127Z,12.16
2023-01-07T11:12:59.096Z,12.11
2023-01-07T11:15:06.608Z,12.15
2023-01-07T11:17:14.068Z,12.07
2023-01-07T11:19:17.306Z,12.00
2023-01-07T11:21:43.572Z,12.08
2023-01-07T11:23:47.401Z,12.11
2023-01-07T11:25:50.635Z,12.02
2023-01-07T11:27:53.809Z,12.05
2023-01-07T11:29:59.294Z,12.04
2023-01-07T11:32:05.734Z,12.11
2023-01-07T11:34:21.004Z,12.20
2023-01-07T11:36:42.110Z,12.34
2023-01-07T11:38:45.652Z,12.35
2023-01-07T11:40:59.805Z,12.42
2023-01-07T11:43:05.191Z,12.40
2023-01-07T11:45:17.045Z,12.43
2023-01-07T11:47:21.568Z,12.51
2023-01-07T11:49:27.496Z,12.59
2023-01-07T11:51:40.577Z,12.55
2023-01-07T11:53:45.916Z,12.61
2023-01-07T11:55:57.929Z,12.67
2023-01-07T11:58:28.622Z,12.73
2023-01-07T12:00:24.784Z,12.76
2023-01-07T12:02:29.454Z,12.82
2023-01-07T12:04:33.661Z,12.84
2023-01-07T12:06:40.119Z,12.84
2023-01-07T12:08:44.565Z,12.80
2023-01-07T12:10:47.623Z,12.70
2023-01-07T12:12:50.597Z,12.72
2023-01-07T12:14:53.696Z,12.79
2023-01-07T12:16:58.880Z,12.75
2023-01-07T12:19:15.531Z,12.79
2023-01-07T12:21:37.119Z,12.77
2023-01-07T12:23:49.653Z,12.78
2023-01-07T12:25:58.398Z,12.78
2023-01-07T12:28:08.231Z,12.74
2023-01-07T12:30:24.928Z,12.75
2023-01-07T12:32:36.558Z,12.77
2023-01-07T12:34:48.492Z,12.77
2023-01-07T12:36:56.462Z,12.76
2023-01-07T12:39:03.245Z,12.69
2023-01-07T12:41:10.851Z,12.68
2023-01-07T12:43:16.698Z,12.69
2023-01-07T12:45:23.555Z,12.73
2023-01-07T12:47:32.506Z,12.73
2023-01-07T12:49:42.865Z,12.68
2023-01-07T12:51:52.286Z,12.65
2023-01-07T12:53:58.916Z,12.58
2023-01-07T12:56:06.463Z,12.48
2023-01-07T12:58:16.946Z,12.43
2023-01-07T13:00:23.800Z,12.41
2023-01-07T13:02:35.761Z,12.39
2023-01-07T13:04:47.162Z,12.37
2023-01-07T13:06:54.455Z,12.32
2023-01-07T13:08:59.851Z,12.26
2023-01-07T13:11:05.413Z,12.22
2023-01-07T13:13:14.908Z,12.18
2023-01-07T13:15:22.078Z,12.21
2023-01-07T13:17:27.077Z,12.23
2023-01-07T13:19:30.176Z,12.23
2023-01-07T13:21:34.664Z,12.18
2023-01-07T13:23:52.220Z,12.14
2023-01-07T13:26:07.313Z,12.12
2023-01-07T13:28:27.830Z,12.17
2023-01-07T13:30:39.026Z,12.17
2023-01-07T13:32:57.436Z,12.18
2023-01-07T13:35:14.757Z,12.14
2023-01-07T13:37:33.206Z,12.20
2023-01-07T13:39:49.696Z,12.19
2023-01-07T13:42:05.579Z,12.17
2023-01-07T13:44:28.105Z,12.12
2023-01-07T13:46:34.450Z,12.12
2023-01-07T13:48:38.503Z,12.14
2023-01-07T13:50:44.014Z,12.13
2023-01-07T13:52:57.116Z,12.11
2023-01-07T13:55:01.621Z,12.12
2023-01-07T13:57:41.617Z,12.08
2023-01-07T13:59:49.466Z,12.03
2023-01-07T14:02:18.152Z,12.01
2023-01-07T14:04:38.653Z,12.03
2023-01-07T14:06:42.603Z,12.02
2023-01-07T14:08:47.745Z,11.97
2023-01-07T14:10:53.283Z,11.98
2023-01-07T14:13:10.958Z,11.98
2023-01-07T14:16:01.691Z,12.02
2023-01-07T14:18:24.310Z,12.01
2023-01-07T14:20:32.468Z,11.96
2023-01-07T14:22:41.053Z,11.93
2023-01-07T14:25:08.810Z,11.91
2023-01-07T14:27:31.590Z,11.91
2023-01-07T14:29:47.111Z,11.92
2023-01-07T14:31:51.353Z,11.94
2023-01-07T14:33:58.193Z,11.96
2023-01-07T14:36:02.885Z,11.93
2023-01-07T14:38:39.427Z,11.90
2023-01-07T14:41:07.747Z,11.88
2023-01-07T14:43:47.341Z,11.83
2023-01-07T14:45:54.832Z,11.80
2023-01-07T14:47:57.932Z,11.79
2023-01-07T14:50:14.418Z,11.75
2023-01-07T14:52:26.978Z,11.73
2023-01-07T14:55:05.423Z,11.70
2023-01-07T14:57:21.282Z,11.66
2023-01-07T14:59:38.137Z,11.67
2023-01-07T15:01:49.921Z,11.68
2023-01-07T15:04:18.166Z,11.67
2023-01-07T15:06:25.756Z,11.64
2023-01-07T15:08:50.508Z,11.65
2023-01-07T15:11:12.192Z,11.63
2023-01-07T15:13:37.000Z,11.56
2023-01-07T15:15:59.019Z,11.55
2023-01-07T15:18:02.393Z,11.53
2023-01-07T15:20:06.293Z,11.54
2023-01-07T15:22:18.219Z,11.50
2023-01-07T15:24:26.845Z,11.49
2023-01-07T15:26:37.745Z,11.46
2023-01-07T15:28:48.593Z,11.46
2023-01-07T15:30:58.296Z,11.43
2023-01-07T15:33:07.506Z,11.43
2023-01-07T15:35:16.415Z,11.40
2023-01-07T15:37:20.129Z,11.36
2023-01-07T15:39:25.121Z,11.31
2023-01-07T15:41:31.784Z,11.27
2023-01-07T15:43:34.800Z,11.23
2023-01-07T15:45:39.350Z,11.19
2023-01-07T15:47:43.490Z,11.18
2023-01-07T15:49:46.617Z,11.16
2023-01-07T15:51:51.270Z,11.14
2023-01-07T15:53:56.082Z,11.09
2023-01-07T15:56:01.149Z,11.07
2023-01-07T15:58:06.100Z,11.02
2023-01-07T16:00:10.361Z,11.02
2023-01-07T16:02:22.240Z,10.97
2023-01-07T16:04:28.068Z,10.86
2023-01-07T16:06:35.030Z,10.84
2023-01-07T16:08:38.239Z,10.76
2023-01-07T16:10:41.347Z,10.68
2023-01-07T16:12:50.449Z,10.59
2023-01-07T16:14:53.562Z,10.52
2023-01-07T16:17:11.641Z,10.41
2023-01-07T16:19:20.468Z,10.37
2023-01-07T16:21:24.174Z,10.33
2023-01-07T16:23:28.680Z,10.32
2023-01-07T16:25:34.874Z,10.30
2023-01-07T16:27:38.727Z,10.27
2023-01-07T16:29:51.024Z,10.23
2023-01-07T16:31:54.657Z,10.20
2023-01-07T16:33:58.771Z,10.15
2023-01-07T16:36:07.550Z,10.09
2023-01-07T16:38:11.341Z,10.07
2023-01-07T16:40:21.908Z,10.07
2023-01-07T16:42:27.120Z,10.06
2023-01-07T16:45:00.644Z,10.01
2023-01-07T16:47:08.180Z,9.91
2023-01-07T16:49:29.606Z,9.85
2023-01-07T16:51:38.605Z,9.83
2023-01-07T16:53:41.777Z,9.81
2023-01-07T16:55:49.239Z,9.79
2023-01-07T16:57:52.321Z,9.77
2023-01-07T16:59:57.213Z,9.75
2023-01-07T17:02:03.205Z,9.70
2023-01-07T17:04:10.050Z,9.66
2023-01-07T17:06:13.190Z,9.60
2023-01-07T17:08:19.948Z,9.53
2023-01-07T17:10:26.476Z,9.45
2023-01-07T17:12:30.965Z,9.42
2023-01-07T17:14:50.076Z,9.37
2023-01-07T17:17:00.055Z,9.31
2023-01-07T17:19:25.465Z,9.23
2023-01-07T17:21:40.271Z,9.14
2023-01-07T17:23:45.611Z,9.10
2023-01-07T17:25:48.693Z,9.06
2023-01-07T17:27:53.909Z,9.04
2023-01-07T17:29:57.103Z,8.98
2023-01-07T17:32:00.197Z,8.94
2023-01-07T17:34:03.374Z,8.91
2023-01-07T17:36:07.248Z,8.85
2023-01-07T17:38:13.290Z,8.80
2023-01-07T17:40:18.771Z,8.76
2023-01-07T17:42:41.338Z,8.71
2023-01-07T17:44:45.757Z,8.66
2023-01-07T17:46:49.043Z,8.57
2023-01-07T17:48:52.450Z,8.51
2023-01-07T17:50:57.182Z,8.50
2023-01-07T17:53:00.629Z,8.48
2023-01-07T17:55:04.163Z,8.54
2023-01-07T17:57:09.799Z,8.58
2023-01-07T17:59:15.799Z,8.55
2023-01-07T18:01:20.513Z,8.54
2023-01-07T18:03:23.892Z,8.57
2023-01-07T18:05:27.544Z,8.61
2023-01-07T18:07:30.689Z,8.64
2023-01-07T18:09:33.743Z,8.65
2023-01-07T18:11:56.244Z,8.61
2023-01-07T18:14:01.050Z,8.52
2023-01-07T18:16:04.678Z,8.44
2023-01-07T18:18:07.875Z,8.42
2023-01-07T18:20:11.922Z,8.37
2023-01-07T18:22:15.091Z,8.32
2023-01-07T18:24:20.074Z,8.16
2023-01-07T18:26:23.278Z,8.02
2023-01-07T18:28:26.502Z,7.96
2023-01-07T18:30:31.515Z,7.91
2023-01-07T18:32:34.596Z,7.91
2023-01-07T18:34:38.122Z,7.88
2023-01-07T18:36:41.614Z,7.88
2023-01-07T18:38:44.853Z,7.87
2023-01-07T18:40:48.032Z,7.83
2023-01-07T18:42:51.120Z,7.78
2023-01-07T18:44:54.176Z,7.74
2023-01-07T18:46:58.867Z,7.69
2023-01-07T18:49:02.078Z,7.63
2023-01-07T18:51:10.532Z,7.60
2023-01-07T18:53:14.160Z,7.58
2023-01-07T18:55:19.367Z,7.56
2023-01-07T18:57:22.577Z,7.55
2023-01-07T18:59:25.770Z,7.50
2023-01-07T19:01:28.906Z,7.46
2023-01-07T19:03:33.839Z,7.45
2023-01-07T19:05:40.161Z,7.40
2023-01-07T19:07:43.536Z,7.36
2023-01-07T19:09:47.093Z,7.37
2023-01-07T19:11:50.363Z,7.31
2023-01-07T19:13:53.490Z,7.26
2023-01-07T19:15:56.523Z,7.24
2023-01-07T19:17:59.532Z,7.19
2023-01-07T19:20:03.997Z,7.12
2023-01-07T19:22:07.092Z,7.09
2023-01-07T19:24:10.398Z,7.01
2023-01-07T19:26:13.513Z,7.01
2023-01-07T19:28:16.571Z,7.01
2023-01-07T19:30:19.625Z,7.00
2023-01-07T19:32:22.887Z,6.99
2023-01-07T19:34:26.197Z,6.93
2023-01-07T19:36:30.652Z,6.92
2023-01-07T19:38:33.780Z,6.89
2023-01-07T19:40:36.859Z,6.86
2023-01-07T19:42:39.905Z,6.75
2023-01-07T19:44:43.163Z,6.71
2023-01-07T19:46:46.170Z,6.69
2023-01-07T19:48:49.734Z,6.64
2023-01-07T19:50:57.239Z,6.63
2023-01-07T19:53:01.745Z,6.68
2023-01-07T19:55:05.679Z,6.70
2023-01-07T19:57:09.048Z,6.69
2023-01-07T19:59:12.352Z,6.68
2023-01-07T20:01:17.986Z,6.67
2023-01-07T20:03:21.183Z,6.66
2023-01-07T20:05:25.941Z,6.64
2023-01-07T20:07:33.985Z,6.58
2023-01-07T20:09:40.687Z,6.55
2023-01-07T20:11:43.766Z,6.56
2023-01-07T20:13:47.990Z,6.57
2023-01-07T20:15:51.075Z,6.55
2023-01-07T20:17:54.197Z,6.56
2023-01-07T20:19:57.258Z,6.53
2023-01-07T20:22:00.355Z,6.53
2023-01-07T20:24:04.408Z,6.52
2023-01-07T20:26:11.959Z,6.51
2023-01-07T20:28:15.040Z,6.48
2023-01-07T20:30:18.178Z,6.45
2023-01-07T20:32:21.217Z,6.44
2023-01-07T20:34:24.284Z,6.42
2023-01-07T20:36:29.516Z,6.42
2023-01-07T20:38:32.647Z,6.43
2023-01-07T20:40:35.844Z,6.39
2023-01-07T20:42:40.431Z,6.37
2023-01-07T20:44:43.524Z,6.33
2023-01-07T20:46:46.594Z,6.30
2023-01-07T20:48:49.906Z,6.26
2023-01-07T20:50:52.979Z,6.18
2023-01-07T20:52:56.116Z,6.17
2023-01-07T20:54:59.139Z,6.18
2023-01-07T20:57:02.661Z,6.18
2023-01-07T20:59:07.613Z,6.22
2023-01-07T21:01:14.229Z,6.16
2023-01-07T21:03:17.612Z,6.15
2023-01-07T21:05:22.955Z,6.10
2023-01-07T21:07:26.134Z,6.04
2023-01-07T21:09:29.293Z,5.96
2023-01-07T21:11:32.471Z,5.97
2023-01-07T21:13:35.645Z,5.97
2023-01-07T21:15:40.286Z,6.00
2023-01-07T21:17:43.871Z,5.94
2023-01-07T21:19:47.042Z,5.90
2023-01-07T21:21:50.687Z,5.84
2023-01-07T21:23:54.359Z,5.78
2023-01-07T21:25:58.730Z,5.71
2023-01-07T21:28:02.112Z,5.64
2023-01-07T21:30:06.335Z,5.65
2023-01-07T21:32:10.797Z,5.68
2023-01-07T21:34:15.417Z,5.71
2023-01-07T21:36:19.573Z,5.72
2023-01-07T21:38:22.828Z,5.74
2023-01-07T21:40:25.988Z,5.72
2023-01-07T21:42:29.090Z,5.72
2023-01-07T21:44:32.157Z,5.72
2023-01-07T21:46:35.318Z,5.67
2023-01-07T21:48:40.892Z,5.69
2023-01-07T21:50:43.920Z,5.67
2023-01-07T21:52:46.995Z,5.67
2023-01-07T21:54:51.858Z,5.68
2023-01-07T21:56:54.987Z,5.66
2023-01-07T21:58:58.102Z,5.67
2023-01-07T22:01:01.311Z,5.63
2023-01-07T22:03:04.970Z,5.63
2023-01-07T22:05:11.883Z,5.61
2023-01-07T22:07:16.047Z,5.59
2023-01-07T22:09:20.173Z,5.58
2023-01-07T22:11:25.004Z,5.57
2023-01-07T22:13:28.685Z,5.57
2023-01-07T22:15:32.888Z,5.55
2023-01-07T22:17:36.520Z,5.52
2023-01-07T22:19:39.796Z,5.50
2023-01-07T22:21:44.495Z,5.50
2023-01-07T22:23:48.477Z,5.48
2023-01-07T22:25:52.262Z,5.44
2023-01-07T22:27:57.811Z,5.43
2023-01-07T22:30:01.765Z,5.40
2023-01-07T22:32:05.213Z,5.39
2023-01-07T22:34:09.755Z,5.38
2023-01-07T22:36:13.636Z,5.39
2023-01-07T22:38:20.002Z,5.31
2023-01-07T22:40:23.246Z,5.27
2023-01-07T22:42:32.057Z,5.27
2023-01-07T22:44:37.927Z,5.24
2023-01-07T22:46:42.985Z,5.21
2023-01-07T22:48:46.091Z,5.20
2023-01-07T22:50:49.619Z,5.17
2023-01-07T22:52:53.010Z,5.15
2023-01-07T22:54:57.872Z,5.16
2023-01-07T22:57:01.422Z,5.15
2023-01-07T22:59:05.075Z,5.15
2023-01-07T23:01:12.948Z,5.10
2023-01-07T23:03:16.628Z,5.10
2023-01-07T23:05:20.040Z,5.10
2023-01-07T23:07:23.532Z,5.08
2023-01-07T23:09:26.827Z,5.12
2023-01-07T23:11:50.836Z,5.11
2023-01-07T23:13:54.207Z,5.12
2023-01-07T23:15:57.611Z,5.11
2023-01-07T23:18:00.815Z,5.08
2023-01-07T23:20:03.880Z,5.07
2023-01-07T23:22:06.983Z,5.09
2023-01-07T23:24:10.595Z,5.08
2023-01-07T23:26:14.794Z,5.06
2023-01-07T23:28:20.207Z,5.06
2023-01-07T23:30:23.589Z,5.05
2023-01-07T23:32:26.839Z,5.04
2023-01-07T23:34:30.047Z,5.10
2023-01-07T23:36:33.158Z,5.10
2023-01-07T23:38:36.718Z,5.12
2023-01-07T23:40:40.441Z,5.13
2023-01-07T23:42:46.273Z,5.12
2023-01-07T23:44:50.647Z,5.08
2023-01-07T23:46:53.699Z,5.06
2023-01-07T23:48:56.727Z,5.06
2023-01-07T23:51:06.003Z,5.05
2023-01-07T23:53:09.022Z,5.06
2023-01-07T23:55:12.009Z,5.03
2023-01-07T23:57:15.273Z,5.02
2023-01-07T23:59:18.794Z,5.01
